Enter the Airport ICAO Code

Search by Airport or City

Current Weather

ENGM | Oslo Airport, Gardermoen

Oslo, Norway

Last Update 18 Minutes Ago

Partly Cloudy Sky

Temperature of 06 ºC

Light to Moderate Winds from South

Temperature

06 ºC

Dew Point Temperature

04 ºC

Relative Humidity

87.01 %

Wind Direction

South (190º, Without Significant Variations)

Wind Velocity

17 km/h (09 kt)

Gusts

None

Visibility

Greater than 10 Kilometers

Sea Level Pressure

0977 hPa (Hectopascals)

Layers of Clouds

5% to 30% of Sky Covered from 488 mts (1600 ft) Above Ground Level.

30% to 60% of Sky Covered from 7620 mts (25000 ft) Above Ground Level.

METAR ENGM 202350Z 19009KT 9999 FEW016 SCT250 06/04 Q0977

Weather Forecast

ENGM | Oslo Airport, Gardermoen

Oslo, Norway

Forecast valid for the next -504 Hours

From now on it is expected:

Partly Cloudy Sky

In 7 to 9 hours it is expected the begining of:

Moderate Winds from NorthWest

In 12 hours it is expected the begining of 6 hours with intermittent periods of:

Moderate Winds from NorthWest with Gusts

Maximum Temperature

No Data

Minimum Temperature

No Data

TAF ENGM 2100/2124 19010KT 9999 SCT020 PROB40 2100/2106 BKN008 BECMG 2107/2109 32010KT PROB40 TEMPO 2112/2118 30015G25KT